Time;durP1;ratioP1;P1;durP2;ratioP2;P2;SDS_P1;SDS_P2;PMS_P1;PMS_P2;Temp;Humidity;BMP_temperature;BMP_pressure;BME280_temperature;BME280_humidity;BME280_pressure;Samples;Min_cycle;Max_cycle;Signal;HPM_P1;HPM_P2
2022/10/18 00:02:59;;;;;;;10.57;9.57;;;;;;;20.18;37.45;96571.97;6111055;28;103313;-67
2022/10/18 00:06:03;;;;;;;10.90;9.93;;;;;;;20.17;37.93;96575.69;6099774;28;104250;-67
2022/10/18 00:09:06;;;;;;;11.00;10.07;;;;;;;20.18;37.60;96571.97;6110986;28;103258;-68
2022/10/18 00:12:09;;;;;;;9.63;8.83;;;;;;;20.16;37.59;96566.88;6111515;28;103161;-67
2022/10/18 00:15:12;;;;;;;10.50;9.53;;;;;;;20.16;37.49;96563.44;6110415;28;103455;-66
2022/10/18 00:18:17;;;;;;;10.23;9.43;;;;;;;20.15;37.76;96557.31;6101530;28;103762;-67
2022/10/18 00:21:22;;;;;;;9.23;8.53;;;;;;;20.14;37.28;96560.22;6122051;28;103280;-67
2022/10/18 00:24:25;;;;;;;9.13;8.23;;;;;;;20.16;37.56;96544.81;6110534;28;106030;-67
2022/10/18 00:27:29;;;;;;;9.50;8.70;;;;;;;20.12;37.55;96544.53;6106158;28;103247;-68
2022/10/18 00:30:32;;;;;;;9.07;8.27;;;;;;;20.11;37.66;96544.81;6106545;28;103426;-68
2022/10/18 00:33:37;;;;;;;10.00;9.10;;;;;;;20.13;37.51;96538.16;6110403;28;103150;-68
2022/10/18 00:36:40;;;;;;;8.63;7.93;;;;;;;20.10;37.54;96533.38;6110353;28;103151;-68
2022/10/18 00:39:43;;;;;;;9.60;8.80;;;;;;;20.10;37.35;96533.38;6100288;28;103207;-67
2022/10/18 00:42:46;;;;;;;8.60;7.80;;;;;;;20.10;37.45;96529.91;6110608;28;103149;-67
2022/10/18 00:45:49;;;;;;;8.50;7.70;;;;;;;20.11;37.42;96537.63;6110403;28;104731;-68
2022/10/18 00:48:56;;;;;;;9.17;8.37;;;;;;;20.09;37.14;96531.78;6111599;28;102802;-68
2022/10/18 00:52:03;;;;;;;9.47;8.67;;;;;;;20.09;37.42;96531.78;6101573;28;103749;-67
2022/10/18 00:55:07;;;;;;;8.20;7.50;;;;;;;20.06;37.43;96523.53;6109924;28;103295;-67
2022/10/18 00:58:12;;;;;;;7.80;7.20;;;;;;;20.06;37.41;96526.97;6110700;28;104569;-67
2022/10/18 01:01:16;;;;;;;8.03;7.33;;;;;;;20.08;37.23;96524.06;6110623;28;103420;-67
2022/10/18 01:04:22;;;;;;;8.20;7.57;;;;;;;20.06;37.58;96515.53;6098877;28;103242;-67
2022/10/18 01:07:37;;;;;;;7.20;6.63;;;;;;;20.06;37.48;96515.53;6110107;28;103725;-67
2022/10/18 01:10:48;;;;;;;7.83;7.13;;;;;;;20.05;37.33;96514.75;6111200;28;103195;-68
2022/10/18 01:14:04;;;;;;;7.33;6.83;;;;;;;20.03;37.43;96511.56;6100506;28;103307;-67
2022/10/18 01:17:13;;;;;;;7.00;6.50;;;;;;;20.02;37.21;96516.06;6109987;28;103565;-68
2022/10/18 01:21:05;;;;;;;7.47;6.87;;;;;;;20.01;37.36;96508.34;6110194;28;103405;-67
2022/10/18 01:25:00;;;;;;;7.83;7.17;;;;;;;20.01;37.14;96503.03;6101132;28;103385;-67
2022/10/18 01:28:34;;;;;;;7.10;6.53;;;;;;;20.01;37.30;96505.69;6044907;28;103221;-68
2022/10/18 01:31:45;;;;;;;7.10;6.50;;;;;;;20.02;37.23;96502.78;6064734;28;103326;-68
2022/10/18 01:34:50;;;;;;;6.70;6.10;;;;;;;20.00;37.07;96504.09;6095588;28;103044;-68
2022/10/18 01:37:57;;;;;;;7.03;6.43;;;;;;;19.98;37.25;96504.31;6098987;28;103800;-67
2022/10/18 01:41:03;;;;;;;6.40;5.90;;;;;;;19.96;37.29;96503.78;6113613;28;106704;-68
2022/10/18 01:44:10;;;;;;;7.00;6.40;;;;;;;19.99;37.36;96499.81;6128113;28;104090;-68
2022/10/18 01:47:15;;;;;;;6.73;6.23;;;;;;;19.96;37.08;96503.78;6134149;28;104201;-68
2022/10/18 01:50:29;;;;;;;6.60;6.10;;;;;;;19.96;37.31;96492.34;6104823;28;104060;-67
2022/10/18 01:53:34;;;;;;;7.10;6.50;;;;;;;19.95;37.24;96504.03;6113969;28;103083;-67
2022/10/18 01:56:44;;;;;;;7.07;6.50;;;;;;;19.95;37.23;96502.19;6113693;28;103151;-67
2022/10/18 01:59:58;;;;;;;6.20;5.70;;;;;;;19.95;37.17;96501.38;6104949;28;103321;-68
2022/10/18 02:03:11;;;;;;;6.87;6.27;;;;;;;19.93;37.24;96500.84;6112878;28;103231;-69
2022/10/18 02:06:20;;;;;;;6.93;6.30;;;;;;;19.91;37.26;96497.66;6113393;28;103953;-69
2022/10/18 02:09:30;;;;;;;6.87;6.37;;;;;;;19.91;37.22;96484.38;6112441;28;103722;-68
2022/10/18 02:12:34;;;;;;;7.60;7.00;;;;;;;19.89;37.05;96484.63;6101255;28;103106;-68
2022/10/18 02:15:41;;;;;;;7.00;6.40;;;;;;;19.90;37.13;96482.75;6113807;28;103250;-69
2022/10/18 02:18:50;;;;;;;7.10;6.50;;;;;;;19.91;37.13;96487.03;6112741;28;103930;-68
2022/10/18 02:21:55;;;;;;;7.20;6.60;;;;;;;19.87;37.23;96478.78;6111630;28;103933;-67
2022/10/18 02:25:01;;;;;;;6.93;6.43;;;;;;;19.89;36.81;96474.00;6106980;28;103260;-69
2022/10/18 02:28:06;;;;;;;7.37;6.77;;;;;;;19.89;37.12;96468.69;6112338;28;102781;-69
2022/10/18 02:31:19;;;;;;;6.73;6.23;;;;;;;19.88;36.91;96474.25;6113081;28;103096;-69
2022/10/18 02:34:29;;;;;;;6.90;6.40;;;;;;;19.85;37.02;96466.81;6103885;28;105174;-69
2022/10/18 02:37:35;;;;;;;6.37;5.80;;;;;;;19.84;37.09;96470.53;6107967;28;103396;-68
2022/10/18 02:40:38;;;;;;;6.67;6.07;;;;;;;19.87;37.14;96485.94;6111072;28;103276;-68
2022/10/18 02:43:41;;;;;;;6.90;6.30;;;;;;;19.85;37.03;96482.75;6112799;28;103339;-68
2022/10/18 02:46:45;;;;;;;6.60;6.00;;;;;;;19.85;37.12;96483.53;6102263;28;103294;-69
2022/10/18 02:49:49;;;;;;;7.20;6.50;;;;;;;19.82;36.76;96483.22;6111134;28;104446;-69
2022/10/18 02:52:52;;;;;;;7.00;5.73;;;;;;;19.82;37.01;96483.22;6112874;28;103035;-68
2022/10/18 02:55:55;;;;;;;7.50;6.80;;;;;;;19.80;37.04;96495.97;6111634;28;103255;-68
2022/10/18 02:58:58;;;;;;;7.03;6.43;;;;;;;19.81;36.96;96497.56;6103032;28;103562;-69
2022/10/18 03:02:01;;;;;;;6.50;6.00;;;;;;;19.76;37.03;96484.25;6112212;28;103155;-68
2022/10/18 03:05:06;;;;;;;6.77;6.27;;;;;;;19.79;36.96;96491.72;6111559;28;103019;-67
2022/10/18 03:08:09;;;;;;;6.97;6.37;;;;;;;19.82;37.36;96494.66;6102096;28;103226;-69
2022/10/18 03:11:13;;;;;;;6.50;6.00;;;;;;;19.84;37.53;96491.75;6110835;28;103193;-68
2022/10/18 03:14:16;;;;;;;9.50;8.70;;;;;;;19.81;37.24;96492.25;6112473;28;103991;-70
2022/10/18 03:17:19;;;;;;;28.47;25.97;;;;;;;19.48;35.83;96478.19;6112782;28;103066;-70
2022/10/18 03:20:23;;;;;;;22.27;20.07;;;;;;;19.44;35.39;96482.41;6100801;28;103440;-69
2022/10/18 03:23:26;;;;;;;19.47;17.57;;;;;;;19.37;35.22;96479.94;6111822;28;103100;-67
2022/10/18 03:26:29;;;;;;;17.43;15.67;;;;;;;19.53;35.21;96480.13;6110559;28;103247;-67
2022/10/18 03:29:32;;;;;;;24.07;21.87;;;;;;;19.59;35.31;96479.88;6112123;28;103266;-67
2022/10/18 03:32:35;;;;;;;20.23;18.27;;;;;;;19.65;35.10;96476.19;6102268;28;103250;-67
2022/10/18 03:35:40;;;;;;;25.50;22.90;;;;;;;19.64;34.78;96477.25;6112144;28;103085;-66
2022/10/18 03:38:43;;;;;;;27.97;25.37;;;;;;;19.65;34.90;96480.72;6111774;28;103674;-67
2022/10/18 03:41:46;;;;;;;43.90;40.10;;;;;;;19.63;34.70;96483.63;6101235;28;106201;-66
2022/10/18 03:44:49;;;;;;;36.33;33.30;;;;;;;19.61;34.45;96487.59;6101839;28;104021;-67
2022/10/18 03:47:52;;;;;;;19.70;18.00;;;;;;;19.53;34.44;96490.72;6109302;28;103272;-66
2022/10/18 03:50:57;;;;;;;18.30;16.40;;;;;;;19.54;34.67;96493.13;6110846;28;103264;-66
2022/10/18 03:54:00;;;;;;;16.60;15.10;;;;;;;19.48;33.92;96495.97;6101575;28;105911;-67
2022/10/18 03:57:03;;;;;;;13.03;11.80;;;;;;;19.45;33.82;96494.63;6110998;28;103255;-67
2022/10/18 04:00:08;;;;;;;13.30;12.00;;;;;;;19.42;34.12;96500.44;6108071;28;103597;-67
2022/10/18 04:03:11;;;;;;;12.10;10.90;;;;;;;19.43;34.05;96494.09;6095436;28;103214;-67
2022/10/18 04:06:16;;;;;;;21.03;18.93;;;;;;;19.40;34.17;96505.19;6101798;28;104125;-69
2022/10/18 04:09:19;;;;;;;33.37;30.43;;;;;;;19.53;34.87;96502.16;6109901;28;103091;-69
2022/10/18 04:12:22;;;;;;;28.17;25.73;;;;;;;19.62;34.27;96499.81;6110367;28;103438;-70
2022/10/18 04:15:25;;;;;;;18.67;16.77;;;;;;;19.56;33.58;96492.88;6107909;28;103243;-67
2022/10/18 04:18:28;;;;;;;15.93;14.43;;;;;;;19.33;33.79;96502.75;6099606;28;103764;-71
2022/10/18 04:21:33;;;;;;;14.00;12.20;;;;;;;19.14;33.76;96494.31;6111772;28;103810;-71
2022/10/18 04:24:36;;;;;;;13.90;12.03;;;;;;;19.03;33.36;96492.63;6112253;28;103039;-71
2022/10/18 04:27:39;;;;;;;12.70;11.40;;;;;;;18.98;33.29;96489.13;6108711;28;103455;-70
2022/10/18 04:30:42;;;;;;;13.30;12.00;;;;;;;18.90;33.52;96487.72;6107523;28;105941;-70
2022/10/18 04:33:45;;;;;;;12.90;11.60;;;;;;;18.82;33.15;96491.63;6110462;28;103139;-70
2022/10/18 04:36:50;;;;;;;11.97;10.90;;;;;;;18.84;33.54;96496.69;6111061;28;103095;-70
2022/10/18 04:39:53;;;;;;;14.43;11.10;;;;;;;18.75;33.23;96491.00;6101128;28;103130;-70
2022/10/18 04:42:56;;;;;;;13.50;11.00;;;;;;;18.80;33.65;96482.31;6109764;28;103147;-70
2022/10/18 04:45:59;;;;;;;12.13;10.77;;;;;;;18.77;33.44;96483.59;6111182;28;103124;-69
2022/10/18 04:49:02;;;;;;;12.67;11.07;;;;;;;18.75;33.25;96482.25;6112229;28;103179;-69
2022/10/18 04:52:07;;;;;;;12.93;10.87;;;;;;;18.70;33.33;96476.91;6103998;28;103864;-70
2022/10/18 04:55:10;;;;;;;14.37;10.10;;;;;;;18.65;33.23;96482.13;6111704;28;103186;-70
2022/10/18 04:58:13;;;;;;;15.07;11.50;;;;;;;18.67;33.20;96480.06;6111607;28;103034;-70
2022/10/18 05:01:17;;;;;;;11.70;10.43;;;;;;;18.66;33.38;96467.84;6111391;28;103270;-70
2022/10/18 05:04:21;;;;;;;14.70;11.50;;;;;;;18.63;33.20;96470.97;6100099;28;102999;-70
2022/10/18 05:07:25;;;;;;;13.73;12.30;;;;;;;18.64;33.26;96467.28;6111997;28;103364;-71
2022/10/18 05:10:28;;;;;;;18.50;13.07;;;;;;;18.59;33.43;96475.97;6110970;28;103217;-71
2022/10/18 05:13:32;;;;;;;16.57;12.87;;;;;;;18.53;33.14;96464.50;6103473;28;103029;-70
2022/10/18 05:16:34;;;;;;;15.93;12.73;;;;;;;18.61;33.35;96471.22;6115718;28;104727;-70
2022/10/18 05:19:37;;;;;;;18.23;13.20;;;;;;;18.60;33.60;96472.28;6115348;28;103235;-71
2022/10/18 05:22:42;;;;;;;17.70;13.40;;;;;;;18.57;33.21;96471.97;6115288;28;103169;-70
2022/10/18 05:25:45;;;;;;;19.63;13.50;;;;;;;18.52;33.24;96468.19;6105763;28;103166;-70
2022/10/18 05:28:49;;;;;;;17.53;12.30;;;;;;;18.55;33.34;96474.88;6115283;28;103237;-70
2022/10/18 05:31:52;;;;;;;20.70;13.37;;;;;;;18.54;33.62;96473.28;6115113;28;103068;-69
2022/10/18 05:34:55;;;;;;;20.20;12.47;;;;;;;18.56;33.61;96468.53;6115948;28;104625;-70
2022/10/18 05:38:02;;;;;;;18.23;13.03;;;;;;;18.59;33.87;96473.31;6104924;28;103536;-70
2022/10/18 05:41:05;;;;;;;15.20;13.60;;;;;;;18.56;33.42;96471.16;6115749;28;106210;-70
2022/10/18 05:44:09;;;;;;;17.63;12.50;;;;;;;18.55;33.47;96474.06;6114958;28;102988;-70
2022/10/18 05:47:12;;;;;;;15.10;11.90;;;;;;;18.57;33.66;96483.38;6111021;28;103471;-70
2022/10/18 05:50:15;;;;;;;15.93;11.73;;;;;;;18.56;33.86;96484.44;6109818;28;103058;-70
2022/10/18 05:53:19;;;;;;;22.00;11.23;;;;;;;18.58;33.76;96474.38;6115007;28;103095;-70
2022/10/18 05:56:39;;;;;;;16.23;11.07;;;;;;;18.64;34.00;96483.19;6114287;28;103059;-70
2022/10/18 05:59:44;;;;;;;16.83;11.10;;;;;;;18.72;33.80;96482.75;6104663;28;103572;-69
2022/10/18 06:02:47;;;;;;;16.13;10.47;;;;;;;18.81;33.82;96486.56;6114745;28;103549;-70
2022/10/18 06:05:50;;;;;;;18.13;9.77;;;;;;;18.93;33.81;96478.47;6114612;28;103083;-70
2022/10/18 06:08:54;;;;;;;15.70;10.43;;;;;;;19.04;33.90;96485.47;6114698;28;103247;-70
2022/10/18 06:11:57;;;;;;;12.90;10.23;;;;;;;19.16;33.92;96485.34;6104002;28;105770;-71
2022/10/18 06:15:00;;;;;;;10.53;9.53;;;;;;;19.23;34.36;96485.94;6114317;28;103519;-70
2022/10/18 06:18:03;;;;;;;13.30;9.47;;;;;;;19.39;34.24;96488.47;6114932;28;103028;-70
2022/10/18 06:21:07;;;;;;;13.10;10.50;;;;;;;19.53;34.05;96490.72;6110053;28;103247;-70
2022/10/18 06:24:12;;;;;;;14.07;10.00;;;;;;;19.64;34.31;96492.41;6108456;28;103088;-70
2022/10/18 06:27:15;;;;;;;11.63;9.70;;;;;;;19.80;33.90;96486.13;6114233;28;103370;-70
2022/10/18 06:30:18;;;;;;;11.37;10.27;;;;;;;19.93;33.73;96487.56;6113978;28;103344;-70
2022/10/18 06:33:21;;;;;;;16.80;9.57;;;;;;;20.01;33.54;96487.91;6105000;28;103939;-70
2022/10/18 06:36:24;;;;;;;11.30;9.00;;;;;;;20.08;33.33;96482.34;6114453;28;103190;-70
2022/10/18 06:39:29;;;;;;;10.57;8.57;;;;;;;20.15;33.10;96482.91;6114183;28;103535;-70
2022/10/18 06:42:32;;;;;;;12.50;8.53;;;;;;;20.27;33.09;96486.19;6114193;28;103199;-69
2022/10/18 06:45:36;;;;;;;12.40;8.00;;;;;;;20.37;33.09;96482.81;6102891;28;103444;-70
2022/10/18 06:48:39;;;;;;;11.50;8.67;;;;;;;20.47;33.13;96474.06;6113819;28;103224;-70
2022/10/18 06:51:43;;;;;;;10.70;8.00;;;;;;;20.54;33.08;96477.28;6114004;28;103131;-70
2022/10/18 06:54:47;;;;;;;8.77;7.80;;;;;;;20.63;32.95;96473.06;6113940;28;102959;-70
2022/10/18 06:57:50;;;;;;;10.47;8.30;;;;;;;20.70;32.79;96472.81;6104300;28;103133;-70
2022/10/18 07:00:53;;;;;;;10.37;8.73;;;;;;;20.74;32.70;96479.22;6113312;28;103054;-69
2022/10/18 07:03:57;;;;;;;9.67;8.50;;;;;;;20.78;32.85;96473.09;6113613;28;103234;-70
2022/10/18 07:07:00;;;;;;;9.53;8.20;;;;;;;20.86;32.83;96472.59;6105605;28;103123;-69
2022/10/18 07:10:05;;;;;;;9.57;8.57;;;;;;;20.92;32.80;96468.88;6112303;28;103101;-70
2022/10/18 07:13:08;;;;;;;9.30;8.50;;;;;;;20.97;32.74;96467.28;6113699;28;103357;-70
2022/10/18 07:16:32;;;;;;;9.47;8.47;;;;;;;21.02;32.68;96464.66;6112028;28;102715;-70
2022/10/18 07:19:35;;;;;;;9.50;7.90;;;;;;;21.07;32.39;96468.16;6102598;28;103065;-70
2022/10/18 07:22:39;;;;;;;9.70;7.80;;;;;;;21.11;32.73;96469.22;6112813;28;103119;-70
2022/10/18 07:25:43;;;;;;;11.20;8.50;;;;;;;21.17;32.44;96470.00;6113054;28;103085;-70
2022/10/18 07:28:48;;;;;;;11.90;8.90;;;;;;;21.20;32.84;96464.97;6113206;28;103164;-69
2022/10/18 07:31:52;;;;;;;11.67;8.00;;;;;;;21.25;32.60;96464.19;6101864;28;103059;-69
2022/10/18 07:34:54;;;;;;;10.47;7.90;;;;;;;21.30;32.72;96456.19;6113066;28;103226;-70
2022/10/18 07:37:58;;;;;;;9.97;8.13;;;;;;;21.33;32.88;96460.16;6111879;28;103133;-70
2022/10/18 07:41:05;;;;;;;10.00;8.90;;;;;;;21.34;32.53;96457.28;6103137;28;103263;-70
2022/10/18 07:44:08;;;;;;;12.83;8.17;;;;;;;21.37;32.76;96454.06;6112517;28;103034;-70
2022/10/18 07:47:11;;;;;;;12.87;8.37;;;;;;;21.37;32.60;96446.09;6112151;28;103097;-71
2022/10/18 07:50:14;;;;;;;12.53;7.90;;;;;;;21.41;32.29;96447.16;6112864;28;103123;-70
2022/10/18 07:53:17;;;;;;;8.93;7.30;;;;;;;21.41;32.45;96436.50;6101963;28;103688;-70
2022/10/18 07:56:22;;;;;;;12.80;8.67;;;;;;;21.43;32.74;96429.03;6113013;28;103231;-70
2022/10/18 07:59:25;;;;;;;12.80;8.23;;;;;;;21.48;32.47;96428.22;6112604;28;103095;-70
2022/10/18 08:02:28;;;;;;;13.90;8.63;;;;;;;21.49;32.52;96427.94;6112364;28;103284;-70
2022/10/18 08:05:31;;;;;;;11.73;8.50;;;;;;;21.52;33.10;96426.63;6102383;28;103351;-69
2022/10/18 08:08:41;;;;;;;9.00;8.10;;;;;;;21.55;33.06;96426.09;6112539;28;102787;-70
2022/10/18 08:11:45;;;;;;;13.50;9.53;;;;;;;21.57;32.98;96420.50;6112575;28;103527;-70
2022/10/18 08:14:48;;;;;;;12.00;8.00;;;;;;;21.57;32.64;96417.84;6107111;28;103165;-70
2022/10/18 08:17:51;;;;;;;13.87;8.40;;;;;;;21.60;32.87;96412.78;6105978;28;103471;-70
2022/10/18 08:20:54;;;;;;;9.67;7.47;;;;;;;21.64;32.71;96407.69;6112207;28;103222;-70
2022/10/18 08:23:57;;;;;;;8.10;7.30;;;;;;;21.63;32.74;96401.56;6112206;28;103237;-70
2022/10/18 08:27:02;;;;;;;7.77;6.77;;;;;;;21.67;33.25;96404.50;6099638;28;102887;-69
2022/10/18 08:30:08;;;;;;;10.80;7.90;;;;;;;21.61;33.84;96397.59;6104086;28;103284;-67
2022/10/18 08:33:11;;;;;;;11.47;8.30;;;;;;;21.53;34.55;96393.63;6108974;28;103141;-67
2022/10/18 08:36:15;;;;;;;11.83;7.80;;;;;;;21.53;34.27;96393.63;6110612;28;103304;-67
2022/10/18 08:39:18;;;;;;;10.97;7.87;;;;;;;21.52;34.59;96387.50;6100949;28;106904;-66
2022/10/18 08:42:44;;;;;;;11.10;7.13;;;;;;;21.54;34.35;96386.41;6110276;28;103410;-67
2022/10/18 08:45:47;;;;;;;8.77;7.63;;;;;;;21.50;34.79;96372.81;6110320;28;103073;-67
2022/10/18 08:48:54;;;;;;;11.20;6.80;;;;;;;21.49;34.37;96366.69;6106953;28;103359;-67
2022/10/18 08:51:58;;;;;;;7.67;6.87;;;;;;;21.51;34.75;96361.94;6111536;28;103245;-67
2022/10/18 08:55:04;;;;;;;7.80;7.00;;;;;;;21.53;34.47;96364.31;6115153;28;103305;-67
2022/10/18 08:58:17;;;;;;;8.70;7.80;;;;;;;21.53;34.34;96356.31;6111791;28;103283;-67
2022/10/18 09:01:30;;;;;;;7.67;6.03;;;;;;;21.53;34.60;96351.00;6102885;28;103125;-67
2022/10/18 09:04:46;;;;;;;9.13;6.07;;;;;;;21.47;34.63;96350.19;6113314;28;106914;-65
2022/10/18 09:08:10;;;;;;;9.93;6.20;;;;;;;21.37;34.62;96342.25;6113237;28;103099;-67
2022/10/18 09:11:24;;;;;;;9.23;6.60;;;;;;;21.35;34.92;96339.06;6111233;28;103978;-67
2022/10/18 09:14:52;;;;;;;7.10;5.83;;;;;;;21.35;34.98;96336.38;6108301;28;103075;-66
2022/10/18 09:18:09;;;;;;;9.07;6.63;;;;;;;21.37;35.28;96338.78;6114006;28;103093;-69
2022/10/18 09:21:21;;;;;;;10.20;6.57;;;;;;;21.39;35.56;96342.75;6112663;28;103415;-66
2022/10/18 09:24:31;;;;;;;6.90;6.20;;;;;;;21.42;35.60;96325.44;6103110;28;103301;-68
2022/10/18 09:27:44;;;;;;;7.03;6.33;;;;;;;21.43;35.39;96333.16;6112319;28;103342;-66
2022/10/18 09:31:00;;;;;;;6.70;5.97;;;;;;;21.46;35.60;96326.50;6111877;28;104072;-67
2022/10/18 09:34:06;;;;;;;7.70;6.00;;;;;;;21.48;35.43;96319.81;6108381;28;103214;-68
2022/10/18 09:37:13;;;;;;;6.50;5.90;;;;;;;21.46;35.65;96316.63;6106638;28;104437;-68
2022/10/18 09:40:21;;;;;;;7.20;6.50;;;;;;;21.44;35.67;96310.00;6122227;28;104084;-68
2022/10/18 09:43:32;;;;;;;7.00;6.30;;;;;;;21.44;36.06;96313.44;6114009;28;104465;-66
2022/10/18 09:46:40;;;;;;;10.47;6.93;;;;;;;21.45;35.75;96312.38;6101562;28;103253;-65
2022/10/18 09:49:47;;;;;;;7.80;7.07;;;;;;;21.44;35.72;96307.31;6110119;28;103626;-66
2022/10/18 09:52:58;;;;;;;7.10;6.50;;;;;;;21.46;35.95;96305.19;6106189;28;103393;-66
2022/10/18 09:56:06;;;;;;;10.37;7.37;;;;;;;21.49;35.47;96301.97;6111816;28;103280;-67
2022/10/18 09:59:31;;;;;;;7.07;6.37;;;;;;;21.48;35.92;96297.72;6101819;28;102865;-67
2022/10/18 10:02:35;;;;;;;8.00;7.30;;;;;;;21.50;35.92;96290.25;6113274;28;103477;-67
2022/10/18 10:05:39;;;;;;;9.60;6.47;;;;;;;21.47;35.42;96278.28;6111805;28;103058;-70
2022/10/18 10:08:43;;;;;;;7.00;6.30;;;;;;;21.64;35.35;96277.16;6106174;28;103847;-69
2022/10/18 10:11:47;;;;;;;7.93;7.23;;;;;;;21.71;35.91;96275.03;6112412;28;103103;-71
2022/10/18 10:14:50;;;;;;;8.97;8.10;;;;;;;21.75;35.57;96270.75;6113094;28;103081;-71
2022/10/18 10:18:01;;;;;;;8.33;7.60;;;;;;;21.76;35.67;96251.00;6113607;28;103142;-71
2022/10/18 10:21:07;;;;;;;8.67;7.87;;;;;;;21.75;36.06;96249.41;6103123;28;103736;-70
2022/10/18 10:24:23;;;;;;;8.50;7.70;;;;;;;21.75;36.05;96241.44;6113417;28;103153;-70
2022/10/18 10:27:34;;;;;;;8.80;6.90;;;;;;;21.76;35.70;96235.03;6114582;28;103118;-70
2022/10/18 10:30:38;;;;;;;8.20;7.40;;;;;;;21.78;35.51;96233.69;6113427;28;103100;-70
2022/10/18 10:33:46;;;;;;;7.13;6.63;;;;;;;21.76;35.81;96222.50;6105127;28;103750;-70
2022/10/18 10:36:51;;;;;;;8.07;7.27;;;;;;;21.76;35.89;96214.50;6113590;28;103221;-70
2022/10/18 10:40:16;;;;;;;7.37;6.67;;;;;;;21.73;35.59;96212.41;6113439;28;103089;-70
2022/10/18 10:43:26;;;;;;;7.10;6.50;;;;;;;21.72;34.39;96210.00;6103307;28;103980;-70
2022/10/18 10:46:44;;;;;;;7.60;5.60;;;;;;;21.63;34.54;96187.66;6102760;28;103225;-72
2022/10/18 10:49:49;;;;;;;7.30;6.70;;;;;;;21.65;33.77;96190.84;6112458;28;105681;-70
2022/10/18 10:52:52;;;;;;;7.27;6.67;;;;;;;21.67;34.10;96186.03;6113737;28;103259;-70
2022/10/18 10:55:57;;;;;;;7.10;6.50;;;;;;;21.69;34.28;96176.72;6102183;28;103734;-71
2022/10/18 10:59:09;;;;;;;6.70;6.03;;;;;;;21.71;34.93;96185.25;6113511;28;103033;-70
2022/10/18 11:02:21;;;;;;;6.90;6.40;;;;;;;21.73;35.08;96179.63;6113413;28;103289;-71
2022/10/18 11:05:29;;;;;;;6.60;6.10;;;;;;;21.72;34.96;96162.84;6105440;28;103252;-70
2022/10/18 11:08:37;;;;;;;6.67;6.17;;;;;;;21.71;34.84;96165.78;6113182;28;103093;-69
2022/10/18 11:11:50;;;;;;;7.43;6.73;;;;;;;21.71;35.39;96158.59;6112608;28;103262;-72
2022/10/18 11:15:02;;;;;;;6.73;6.23;;;;;;;21.73;35.45;96145.78;6112880;28;103392;-70
2022/10/18 11:18:18;;;;;;;12.90;6.87;;;;;;;21.78;35.42;96142.28;6086135;28;103632;-70
2022/10/18 11:21:26;;;;;;;6.03;5.53;;;;;;;21.76;35.43;96137.25;6112059;28;103118;-71
2022/10/18 11:24:30;;;;;;;6.67;6.17;;;;;;;21.76;35.77;96131.91;6113442;28;103218;-70
2022/10/18 11:27:41;;;;;;;6.50;5.90;;;;;;;21.78;35.90;96126.31;6108645;28;103037;-69
2022/10/18 11:30:54;;;;;;;6.80;6.30;;;;;;;21.74;35.70;96120.75;6108590;28;103245;-71
2022/10/18 11:34:14;;;;;;;6.63;6.13;;;;;;;21.68;36.01;96103.22;6113992;28;103201;-70
2022/10/18 11:37:40;;;;;;;5.90;5.50;;;;;;;21.68;36.36;96111.19;6108787;28;103247;-71
2022/10/18 11:40:55;;;;;;;6.43;5.93;;;;;;;21.66;36.48;96096.53;6102731;28;102999;-71
2022/10/18 11:44:00;;;;;;;6.07;5.57;;;;;;;21.65;36.48;96095.75;6113496;28;103294;-71
2022/10/18 11:47:15;;;;;;;5.67;5.27;;;;;;;21.63;36.18;96089.13;6113749;28;103522;-70
2022/10/18 11:50:26;;;;;;;6.30;5.80;;;;;;;21.61;36.21;96081.41;6107858;28;103262;-70
2022/10/18 11:53:39;;;;;;;6.87;6.40;;;;;;;21.56;36.45;96075.31;6108416;28;103223;-70
2022/10/18 11:56:47;;;;;;;6.03;5.63;;;;;;;21.56;36.54;96070.00;6110868;28;105908;-71
2022/10/18 12:00:02;;;;;;;6.10;5.60;;;;;;;21.51;36.90;96063.63;6112162;28;103231;-70
2022/10/18 12:03:22;;;;;;;6.10;5.60;;;;;;;21.47;36.84;96062.56;6102095;28;103147;-70
2022/10/18 12:06:30;;;;;;;6.27;5.80;;;;;;;21.46;37.30;96045.00;6111733;28;103386;-70
2022/10/18 12:09:39;;;;;;;5.60;5.20;;;;;;;21.45;37.47;96046.09;6089203;28;103093;-70
2022/10/18 12:12:50;;;;;;;6.50;6.00;;;;;;;21.44;37.34;96044.50;6091259;28;103055;-71
2022/10/18 12:15:54;;;;;;;6.70;6.10;;;;;;;21.42;37.11;96038.66;6105217;28;104420;-70
2022/10/18 12:19:01;;;;;;;6.50;6.00;;;;;;;21.41;37.63;96036.28;6110566;28;103240;-72
2022/10/18 12:22:14;;;;;;;6.60;6.10;;;;;;;21.31;37.89;96031.00;6112673;28;103364;-72
2022/10/18 12:25:19;;;;;;;6.30;5.90;;;;;;;21.23;37.45;96024.41;6101554;28;103268;-70
2022/10/18 12:28:34;;;;;;;6.87;6.17;;;;;;;21.21;36.83;96013.25;6111084;28;102965;-70
2022/10/18 12:31:42;;;;;;;7.57;6.97;;;;;;;21.18;36.73;96013.81;6111114;28;104885;-70
2022/10/18 12:34:49;;;;;;;7.57;6.87;;;;;;;21.16;36.70;96007.94;6111632;28;103267;-72
2022/10/18 12:38:05;;;;;;;6.60;6.00;;;;;;;21.15;36.98;96012.47;6104407;28;104551;-69
2022/10/18 12:41:19;;;;;;;6.93;6.30;;;;;;;21.14;37.78;96000.22;6110828;28;103090;-70
2022/10/18 12:44:29;;;;;;;5.77;5.27;;;;;;;21.13;37.50;96005.81;6112571;28;103358;-69
2022/10/18 12:47:33;;;;;;;8.57;7.77;;;;;;;21.11;37.63;96000.78;6107555;28;103902;-70
2022/10/18 12:50:38;;;;;;;7.33;6.73;;;;;;;21.11;37.72;95992.00;6106380;28;103393;-71
2022/10/18 12:53:44;;;;;;;6.77;6.27;;;;;;;21.12;37.90;95997.03;6110085;28;103154;-70
2022/10/18 12:56:49;;;;;;;7.67;6.17;;;;;;;21.08;38.18;95989.91;6111601;28;103043;-72
2022/10/18 12:59:52;;;;;;;6.83;6.33;;;;;;;21.03;37.99;95992.56;6102225;28;103061;-71
2022/10/18 13:03:37;;;;;;;6.50;5.90;;;;;;;21.01;37.72;95979.53;6111351;28;103097;-71
2022/10/18 13:07:18;;;;;;;6.40;5.80;;;;;;;20.98;37.73;95985.38;6112398;28;103060;-68
2022/10/18 13:10:39;;;;;;;5.90;5.40;;;;;;;20.99;37.53;95986.97;6104544;28;103173;-69
2022/10/18 13:13:54;;;;;;;6.30;5.70;;;;;;;20.97;37.45;95973.16;6111874;28;103157;-69
2022/10/18 13:17:06;;;;;;;6.07;5.53;;;;;;;20.96;37.77;95970.78;6112873;28;103185;-69
2022/10/18 13:20:23;;;;;;;6.03;5.53;;;;;;;20.97;37.59;95967.03;6112010;28;103641;-70
2022/10/18 13:23:41;;;;;;;5.90;5.50;;;;;;;20.93;37.24;95967.59;6102206;28;103045;-72
2022/10/18 13:26:55;;;;;;;5.70;5.20;;;;;;;20.93;37.34;95958.81;6112443;28;103204;-69
2022/10/18 13:30:33;;;;;;;6.70;5.93;;;;;;;20.93;37.55;95961.47;6112606;28;102738;-69
2022/10/18 13:33:38;;;;;;;5.80;5.30;;;;;;;20.91;37.35;95959.09;6102008;28;105679;-70
2022/10/18 13:36:42;;;;;;;5.20;4.80;;;;;;;20.91;37.32;95955.63;6116064;28;102918;-69
2022/10/18 13:39:46;;;;;;;6.43;5.37;;;;;;;20.90;37.77;95952.19;6115720;28;103199;-69
2022/10/18 13:42:49;;;;;;;5.57;5.13;;;;;;;20.90;37.45;95946.88;6115642;28;103254;-71
2022/10/18 13:45:57;;;;;;;5.93;5.43;;;;;;;20.88;37.02;95935.72;6105548;28;103208;-70
2022/10/18 13:49:14;;;;;;;6.20;5.70;;;;;;;20.88;37.51;95937.56;6115364;28;103148;-71
2022/10/18 13:52:25;;;;;;;5.77;5.37;;;;;;;20.89;37.08;95942.63;6115678;28;103052;-70
2022/10/18 13:55:45;;;;;;;5.90;5.30;;;;;;;20.87;36.99;95936.78;6110257;28;103282;-70
2022/10/18 13:59:21;;;;;;;6.13;5.57;;;;;;;20.87;37.34;95931.47;6112669;28;103085;-70
2022/10/18 14:02:58;;;;;;;5.00;4.60;;;;;;;20.87;37.05;95930.66;6115475;28;103396;-70
2022/10/18 14:06:07;;;;;;;5.70;5.30;;;;;;;20.86;37.30;95929.88;6114996;28;103002;-71
2022/10/18 14:09:17;;;;;;;5.27;4.83;;;;;;;20.85;37.22;95927.50;6104918;28;103932;-70
2022/10/18 14:12:43;;;;;;;5.60;5.20;;;;;;;20.85;37.11;95930.16;6115729;28;103129;-71
2022/10/18 14:15:49;;;;;;;5.80;5.30;;;;;;;20.83;37.13;95925.06;6115284;28;103023;-70
2022/10/18 14:19:00;;;;;;;5.40;4.90;;;;;;;20.88;37.36;95927.72;6104989;28;103232;-70
2022/10/18 14:22:11;;;;;;;5.20;4.80;;;;;;;20.85;37.52;95922.97;6115365;28;103870;-70
2022/10/18 14:25:25;;;;;;;5.50;5.00;;;;;;;20.84;37.68;95926.69;6114480;28;103288;-70
2022/10/18 14:28:28;;;;;;;5.00;4.63;;;;;;;20.83;37.66;95925.06;6115393;28;103074;-70